sensor_id;sensor_type;location;lat;lon;timestamp;pressure;altitude;pressure_sealevel;temperature;humidity
59650;BME280;46162;57.568;25.814;2023-02-15T00:00:45;102271.84;;;-1.56;100.00
59650;BME280;46162;57.568;25.814;2023-02-15T00:03:15;102270.97;;;-1.57;100.00
59650;BME280;46162;57.568;25.814;2023-02-15T00:05:44;102271.78;;;-1.53;100.00
59650;BME280;46162;57.568;25.814;2023-02-15T00:08:12;102270.56;;;-1.40;100.00
59650;BME280;46162;57.568;25.814;2023-02-15T00:10:41;102274.81;;;-1.31;100.00
59650;BME280;46162;57.568;25.814;2023-02-15T00:13:10;102272.81;;;-1.23;100.00
59650;BME280;46162;57.568;25.814;2023-02-15T00:15:39;102273.41;;;-1.12;100.00
59650;BME280;46162;57.568;25.814;2023-02-15T00:18:07;102272.84;;;-1.24;100.00
59650;BME280;46162;57.568;25.814;2023-02-15T00:20:36;102274.72;;;-1.28;100.00
59650;BME280;46162;57.568;25.814;2023-02-15T00:23:04;102265.97;;;-1.32;100.00
59650;BME280;46162;57.568;25.814;2023-02-15T00:25:33;102275.19;;;-1.11;100.00
59650;BME280;46162;57.568;25.814;2023-02-15T00:28:01;102277.25;;;-1.23;100.00
59650;BME280;46162;57.568;25.814;2023-02-15T00:30:31;102273.09;;;-0.99;100.00
59650;BME280;46162;57.568;25.814;2023-02-15T00:33:00;102276.50;;;-0.94;100.00
59650;BME280;46162;57.568;25.814;2023-02-15T00:35:28;102269.41;;;-0.92;100.00
59650;BME280;46162;57.568;25.814;2023-02-15T00:37:57;102269.91;;;-1.12;100.00
59650;BME280;46162;57.568;25.814;2023-02-15T00:40:25;102265.47;;;-1.12;100.00
59650;BME280;46162;57.568;25.814;2023-02-15T00:42:54;102274.31;;;-1.11;100.00
59650;BME280;46162;57.568;25.814;2023-02-15T00:45:23;102268.19;;;-1.13;100.00
59650;BME280;46162;57.568;25.814;2023-02-15T00:47:53;102264.78;;;-1.20;100.00
59650;BME280;46162;57.568;25.814;2023-02-15T00:50:21;102264.78;;;-1.20;100.00
59650;BME280;46162;57.568;25.814;2023-02-15T00:52:50;102262.16;;;-1.21;100.00
59650;BME280;46162;57.568;25.814;2023-02-15T00:55:19;102265.81;;;-1.25;100.00
59650;BME280;46162;57.568;25.814;2023-02-15T00:57:48;102264.03;;;-1.25;100.00
59650;BME280;46162;57.568;25.814;2023-02-15T01:00:17;102257.03;;;-1.27;100.00
59650;BME280;46162;57.568;25.814;2023-02-15T01:02:46;102263.28;;;-1.30;100.00
59650;BME280;46162;57.568;25.814;2023-02-15T01:05:16;102254.38;;;-1.27;100.00
59650;BME280;46162;57.568;25.814;2023-02-15T01:07:44;102254.38;;;-1.27;100.00
59650;BME280;46162;57.568;25.814;2023-02-15T01:10:13;102258.75;;;-1.25;100.00
59650;BME280;46162;57.568;25.814;2023-02-15T01:12:41;102253.34;;;-1.20;100.00
59650;BME280;46162;57.568;25.814;2023-02-15T01:15:10;102249.94;;;-1.27;100.00
59650;BME280;46162;57.568;25.814;2023-02-15T01:17:39;102242.81;;;-1.23;100.00
59650;BME280;46162;57.568;25.814;2023-02-15T01:20:07;102239.25;;;-1.24;100.00
59650;BME280;46162;57.568;25.814;2023-02-15T01:22:37;102241.97;;;-1.25;100.00
59650;BME280;46162;57.568;25.814;2023-02-15T01:25:06;102237.56;;;-1.26;100.00
59650;BME280;46162;57.568;25.814;2023-02-15T01:27:35;102241.13;;;-1.27;100.00
59650;BME280;46162;57.568;25.814;2023-02-15T01:30:06;102237.63;;;-1.28;100.00
59650;BME280;46162;57.568;25.814;2023-02-15T01:32:36;102236.78;;;-1.30;100.00
59650;BME280;46162;57.568;25.814;2023-02-15T01:35:05;102229.75;;;-1.31;100.00
59650;BME280;46162;57.568;25.814;2023-02-15T01:37:34;102240.34;;;-1.31;100.00
59650;BME280;46162;57.568;25.814;2023-02-15T01:40:07;102241.25;;;-1.32;100.00
59650;BME280;46162;57.568;25.814;2023-02-15T01:42:36;102228.91;;;-1.33;100.00
59650;BME280;46162;57.568;25.814;2023-02-15T01:45:18;102223.66;;;-1.36;100.00
59650;BME280;46162;57.568;25.814;2023-02-15T01:47:50;102226.38;;;-1.38;100.00
59650;BME280;46162;57.568;25.814;2023-02-15T01:50:25;102225.53;;;-1.40;100.00
59650;BME280;46162;57.568;25.814;2023-02-15T01:52:58;102214.06;;;-1.40;100.00
59650;BME280;46162;57.568;25.814;2023-02-15T01:55:33;102224.63;;;-1.39;100.00
59650;BME280;46162;57.568;25.814;2023-02-15T01:58:03;102223.75;;;-1.39;100.00
59650;BME280;46162;57.568;25.814;2023-02-15T02:00:32;102219.28;;;-1.37;100.00
59650;BME280;46162;57.568;25.814;2023-02-15T02:03:01;102219.28;;;-1.37;100.00
59650;BME280;46162;57.568;25.814;2023-02-15T02:05:32;102212.19;;;-1.35;100.00
59650;BME280;46162;57.568;25.814;2023-02-15T02:08:02;102221.00;;;-1.35;100.00
59650;BME280;46162;57.568;25.814;2023-02-15T02:10:32;102212.19;;;-1.35;100.00
59650;BME280;46162;57.568;25.814;2023-02-15T02:13:03;102217.47;;;-1.35;100.00
59650;BME280;46162;57.568;25.814;2023-02-15T02:15:40;102215.66;;;-1.33;100.00
59650;BME280;46162;57.568;25.814;2023-02-15T02:18:26;102209.44;;;-1.32;100.00
59650;BME280;46162;57.568;25.814;2023-02-15T02:24:23;102209.38;;;-1.29;100.00
59650;BME280;46162;57.568;25.814;2023-02-15T02:30:20;102208.38;;;-1.25;100.00
59650;BME280;46162;57.568;25.814;2023-02-15T02:36:03;102210.06;;;-1.21;100.00
59650;BME280;46162;57.568;25.814;2023-02-15T02:38:42;102201.19;;;-1.20;100.00
59650;BME280;46162;57.568;25.814;2023-02-15T02:41:17;102197.63;;;-1.19;100.00
59650;BME280;46162;57.568;25.814;2023-02-15T02:43:52;102195.88;;;-1.20;100.00
59650;BME280;46162;57.568;25.814;2023-02-15T02:46:28;102187.09;;;-1.22;100.00
59650;BME280;46162;57.568;25.814;2023-02-15T02:49:00;102191.53;;;-1.22;100.00
59650;BME280;46162;57.568;25.814;2023-02-15T02:51:30;102195.06;;;-1.22;100.00
59650;BME280;46162;57.568;25.814;2023-02-15T02:54:01;102188.88;;;-1.22;100.00
59650;BME280;46162;57.568;25.814;2023-02-15T02:56:36;102190.69;;;-1.23;100.00
59650;BME280;46162;57.568;25.814;2023-02-15T02:59:11;102199.50;;;-1.22;100.00
59650;BME280;46162;57.568;25.814;2023-02-15T03:01:45;102195.88;;;-1.20;100.00
59650;BME280;46162;57.568;25.814;2023-02-15T03:04:19;102199.47;;;-1.21;100.00
59650;BME280;46162;57.568;25.814;2023-02-15T03:06:52;102208.22;;;-1.19;100.00
59650;BME280;46162;57.568;25.814;2023-02-15T03:09:28;102201.19;;;-1.20;100.00
59650;BME280;46162;57.568;25.814;2023-02-15T03:12:13;102192.31;;;-1.19;100.00
59650;BME280;46162;57.568;25.814;2023-02-15T03:14:47;102194.97;;;-1.19;100.00
59650;BME280;46162;57.568;25.814;2023-02-15T03:17:18;102194.16;;;-1.21;100.00
59650;BME280;46162;57.568;25.814;2023-02-15T03:19:55;102190.72;;;-1.24;100.00
59650;BME280;46162;57.568;25.814;2023-02-15T03:22:30;102193.31;;;-1.23;100.00
59650;BME280;46162;57.568;25.814;2023-02-15T03:25:06;102184.50;;;-1.23;100.00
59650;BME280;46162;57.568;25.814;2023-02-15T03:27:40;102181.88;;;-1.25;100.00
59650;BME280;46162;57.568;25.814;2023-02-15T03:30:11;102189.84;;;-1.25;100.00
59650;BME280;46162;57.568;25.814;2023-02-15T03:32:43;102193.41;;;-1.26;100.00
59650;BME280;46162;57.568;25.814;2023-02-15T03:35:14;102195.13;;;-1.25;100.00
59650;BME280;46162;57.568;25.814;2023-02-15T03:37:47;102186.31;;;-1.25;100.00
59650;BME280;46162;57.568;25.814;2023-02-15T03:40:19;102194.31;;;-1.27;100.00
59650;BME280;46162;57.568;25.814;2023-02-15T03:43:13;102190.78;;;-1.27;100.00
59650;BME280;46162;57.568;25.814;2023-02-15T03:45:46;102195.25;;;-1.30;100.00
59650;BME280;46162;57.568;25.814;2023-02-15T03:48:25;102189.94;;;-1.30;100.00
59650;BME280;46162;57.568;25.814;2023-02-15T03:50:59;102198.75;;;-1.29;100.00
59650;BME280;46162;57.568;25.814;2023-02-15T03:53:46;102198.00;;;-1.33;100.00
59650;BME280;46162;57.568;25.814;2023-02-15T03:56:16;102205.06;;;-1.33;100.00
59650;BME280;46162;57.568;25.814;2023-02-15T03:58:45;102200.63;;;-1.33;100.00
59650;BME280;46162;57.568;25.814;2023-02-15T04:01:34;102203.25;;;-1.31;100.00
59650;BME280;46162;57.568;25.814;2023-02-15T04:04:38;102198.00;;;-1.34;100.00
59650;BME280;46162;57.568;25.814;2023-02-15T04:07:09;102206.81;;;-1.32;100.00
59650;BME280;46162;57.568;25.814;2023-02-15T04:09:38;102205.00;;;-1.30;100.00
59650;BME280;46162;57.568;25.814;2023-02-15T04:12:24;102204.88;;;-1.25;100.00
59650;BME280;46162;57.568;25.814;2023-02-15T04:14:53;102208.41;;;-1.26;100.00
59650;BME280;46162;57.568;25.814;2023-02-15T04:17:39;102202.22;;;-1.25;100.00
59650;BME280;46162;57.568;25.814;2023-02-15T04:20:09;102203.06;;;-1.23;100.00
59650;BME280;46162;57.568;25.814;2023-02-15T04:22:56;102200.44;;;-1.25;100.00
59650;BME280;46162;57.568;25.814;2023-02-15T04:25:42;102198.63;;;-1.23;100.00
59650;BME280;46162;57.568;25.814;2023-02-15T04:28:10;102199.47;;;-1.21;100.00
59650;BME280;46162;57.568;25.814;2023-02-15T04:30:39;102206.50;;;-1.20;100.00
59650;BME280;46162;57.568;25.814;2023-02-15T04:33:08;102209.97;;;-1.18;100.00
59650;BME280;46162;57.568;25.814;2023-02-15T04:35:39;102204.59;;;-1.15;100.00
59650;BME280;46162;57.568;25.814;2023-02-15T04:38:11;102200.88;;;-1.08;100.00
59650;BME280;46162;57.568;25.814;2023-02-15T04:40:40;102203.28;;;-0.98;100.00
59650;BME280;46162;57.568;25.814;2023-02-15T04:43:08;102205.00;;;-0.96;100.00
59650;BME280;46162;57.568;25.814;2023-02-15T04:45:37;102201.53;;;-0.99;100.00
59650;BME280;46162;57.568;25.814;2023-02-15T04:48:06;102211.38;;;-1.03;100.00
59650;BME280;46162;57.568;25.814;2023-02-15T04:50:35;102196.19;;;-0.98;100.00
59650;BME280;46162;57.568;25.814;2023-02-15T04:53:05;102207.84;;;-1.03;100.00
59650;BME280;46162;57.568;25.814;2023-02-15T04:55:34;102203.50;;;-1.06;100.00
59650;BME280;46162;57.568;25.814;2023-02-15T04:58:03;102200.88;;;-1.08;100.00
59650;BME280;46162;57.568;25.814;2023-02-15T05:00:31;102204.50;;;-1.12;100.00
59650;BME280;46162;57.568;25.814;2023-02-15T05:03:00;102213.38;;;-1.13;100.00
59650;BME280;46162;57.568;25.814;2023-02-15T05:05:29;102201.06;;;-1.14;100.00
59650;BME280;46162;57.568;25.814;2023-02-15T05:07:57;102210.72;;;-1.13;100.00
59650;BME280;46162;57.568;25.814;2023-02-15T05:10:28;102201.06;;;-1.15;100.00
59650;BME280;46162;57.568;25.814;2023-02-15T05:12:57;102203.72;;;-1.15;100.00
59650;BME280;46162;57.568;25.814;2023-02-15T05:15:26;102203.72;;;-1.15;100.00
59650;BME280;46162;57.568;25.814;2023-02-15T05:17:55;102200.22;;;-1.16;100.00
59650;BME280;46162;57.568;25.814;2023-02-15T05:20:24;102196.69;;;-1.16;100.00
59650;BME280;46162;57.568;25.814;2023-02-15T05:22:53;102199.38;;;-1.18;100.00
59650;BME280;46162;57.568;25.814;2023-02-15T05:25:22;102190.50;;;-1.17;100.00
59650;BME280;46162;57.568;25.814;2023-02-15T05:28:10;102190.50;;;-1.17;100.00
59650;BME280;46162;57.568;25.814;2023-02-15T05:30:58;102195.81;;;-1.17;100.00
59650;BME280;46162;57.568;25.814;2023-02-15T05:33:29;102188.78;;;-1.18;100.00
59650;BME280;46162;57.568;25.814;2023-02-15T05:36:01;102185.19;;;-1.17;100.00
59650;BME280;46162;57.568;25.814;2023-02-15T05:38:31;102194.91;;;-1.16;100.00
59650;BME280;46162;57.568;25.814;2023-02-15T05:41:00;102187.81;;;-1.14;100.00
59650;BME280;46162;57.568;25.814;2023-02-15T05:43:30;102196.31;;;-1.02;100.00
59650;BME280;46162;57.568;25.814;2023-02-15T05:46:00;102187.94;;;-0.87;100.00
59650;BME280;46162;57.568;25.814;2023-02-15T05:48:29;102199.44;;;-0.87;100.00
59650;BME280;46162;57.568;25.814;2023-02-15T05:50:59;102196.81;;;-0.88;100.00
59650;BME280;46162;57.568;25.814;2023-02-15T05:53:29;102196.00;;;-0.90;100.00
59650;BME280;46162;57.568;25.814;2023-02-15T05:55:59;102206.28;;;-0.78;100.00
59650;BME280;46162;57.568;25.814;2023-02-15T05:58:32;102199.25;;;-0.79;100.00
59650;BME280;46162;57.568;25.814;2023-02-15T06:01:07;102194.88;;;-0.81;100.00
59650;BME280;46162;57.568;25.814;2023-02-15T06:03:37;102197.66;;;-0.86;100.00
59650;BME280;46162;57.568;25.814;2023-02-15T06:06:06;102195.34;;;-0.98;100.00
59650;BME280;46162;57.568;25.814;2023-02-15T06:08:36;102197.31;;;-1.06;100.00
59650;BME280;46162;57.568;25.814;2023-02-15T06:11:05;102196.63;;;-1.13;100.00
59650;BME280;46162;57.568;25.814;2023-02-15T06:13:35;102194.06;;;-1.18;100.00
59650;BME280;46162;57.568;25.814;2023-02-15T06:16:05;102195.81;;;-1.17;100.00
59650;BME280;46162;57.568;25.814;2023-02-15T06:18:37;102190.44;;;-1.14;100.00
59650;BME280;46162;57.568;25.814;2023-02-15T06:21:05;102194.00;;;-1.15;100.00
59650;BME280;46162;57.568;25.814;2023-02-15T06:23:34;102195.81;;;-1.17;100.00
59650;BME280;46162;57.568;25.814;2023-02-15T06:26:03;102200.25;;;-1.17;100.00
59650;BME280;46162;57.568;25.814;2023-02-15T06:28:32;102199.38;;;-1.18;100.00
59650;BME280;46162;57.568;25.814;2023-02-15T06:31:02;102183.56;;;-1.21;100.00
59650;BME280;46162;57.568;25.814;2023-02-15T06:33:31;102194.19;;;-1.22;100.00
59650;BME280;46162;57.568;25.814;2023-02-15T06:36:01;102185.47;;;-1.26;100.00
59650;BME280;46162;57.568;25.814;2023-02-15T06:38:31;102185.38;;;-1.23;100.00
59650;BME280;46162;57.568;25.814;2023-02-15T06:40:59;102187.09;;;-1.22;100.00
59650;BME280;46162;57.568;25.814;2023-02-15T06:43:28;102187.09;;;-1.22;100.00
59650;BME280;46162;57.568;25.814;2023-02-15T06:45:57;102178.19;;;-1.18;100.00
59650;BME280;46162;57.568;25.814;2023-02-15T06:48:31;102183.31;;;-1.12;100.00
59650;BME280;46162;57.568;25.814;2023-02-15T06:50:59;102186.63;;;-1.03;100.00
59650;BME280;46162;57.568;25.814;2023-02-15T06:53:29;102169.72;;;-0.99;100.00
59650;BME280;46162;57.568;25.814;2023-02-15T06:56:03;102168.41;;;-0.83;100.00
59650;BME280;46162;57.568;25.814;2023-02-15T06:58:33;102170.09;;;-0.80;100.00
59650;BME280;46162;57.568;25.814;2023-02-15T07:01:03;102172.72;;;-0.79;100.00
59650;BME280;46162;57.568;25.814;2023-02-15T07:03:34;102166.84;;;-0.59;100.00
59650;BME280;46162;57.568;25.814;2023-02-15T07:06:03;102168.53;;;-0.56;100.00
59650;BME280;46162;57.568;25.814;2023-02-15T07:08:36;102161.06;;;-0.42;100.00
59650;BME280;46162;57.568;25.814;2023-02-15T07:11:06;102173.53;;;-0.46;100.00
59650;BME280;46162;57.568;25.814;2023-02-15T07:13:52;102163.31;;;-0.30;100.00
59650;BME280;46162;57.568;25.814;2023-02-15T07:16:21;102175.06;;;-0.37;100.00
59650;BME280;46162;57.568;25.814;2023-02-15T07:18:51;102164.97;;;-0.26;100.00
59650;BME280;46162;57.568;25.814;2023-02-15T07:21:20;102171.72;;;-0.14;100.00
59650;BME280;46162;57.568;25.814;2023-02-15T07:23:49;102169.91;;;-0.13;100.00
59650;BME280;46162;57.568;25.814;2023-02-15T07:26:18;102177.03;;;-0.15;100.00
59650;BME280;46162;57.568;25.814;2023-02-15T07:28:47;102174.25;;;-0.40;100.00
59650;BME280;46162;57.568;25.814;2023-02-15T07:31:16;102177.72;;;-0.37;100.00
59650;BME280;46162;57.568;25.814;2023-02-15T07:33:45;102169.69;;;-0.35;100.00
59650;BME280;46162;57.568;25.814;2023-02-15T07:36:15;102178.47;;;-0.65;100.00
59650;BME280;46162;57.568;25.814;2023-02-15T07:38:43;102172.38;;;-0.67;100.00
59650;BME280;46162;57.568;25.814;2023-02-15T07:41:13;102177.84;;;-0.73;100.00
59650;BME280;46162;57.568;25.814;2023-02-15T07:43:44;102177.94;;;-0.76;100.00
59650;BME280;46162;57.568;25.814;2023-02-15T07:46:14;102180.69;;;-0.79;100.00
59650;BME280;46162;57.568;25.814;2023-02-15T07:48:44;102177.22;;;-0.82;100.00
59650;BME280;46162;57.568;25.814;2023-02-15T07:51:14;102172.97;;;-0.88;100.00
59650;BME280;46162;57.568;25.814;2023-02-15T07:53:43;102175.75;;;-0.94;100.00
59650;BME280;46162;57.568;25.814;2023-02-15T07:56:13;102178.47;;;-0.96;100.00
59650;BME280;46162;57.568;25.814;2023-02-15T07:58:42;102179.34;;;-0.95;100.00
59650;BME280;46162;57.568;25.814;2023-02-15T08:01:27;102180.28;;;-0.96;100.00
59650;BME280;46162;57.568;25.814;2023-02-15T08:03:56;102181.00;;;-0.91;100.00
59650;BME280;46162;57.568;25.814;2023-02-15T08:06:28;102177.44;;;-0.90;100.00
59650;BME280;46162;57.568;25.814;2023-02-15T08:08:57;102175.72;;;-0.91;100.00
59650;BME280;46162;57.568;25.814;2023-02-15T08:11:27;102173.06;;;-0.91;100.00
59650;BME280;46162;57.568;25.814;2023-02-15T08:14:05;102176.69;;;-0.95;100.00
59650;BME280;46162;57.568;25.814;2023-02-15T08:16:36;102177.63;;;-0.96;100.00
59650;BME280;46162;57.568;25.814;2023-02-15T08:19:07;102173.13;;;-0.94;100.00
59650;BME280;46162;57.568;25.814;2023-02-15T08:21:39;102166.06;;;-0.94;100.00
59650;BME280;46162;57.568;25.814;2023-02-15T08:24:09;102163.34;;;-0.92;100.00
59650;BME280;46162;57.568;25.814;2023-02-15T08:26:39;102158.88;;;-0.90;100.00
59650;BME280;46162;57.568;25.814;2023-02-15T08:29:08;102163.19;;;-0.86;100.00
59650;BME280;46162;57.568;25.814;2023-02-15T08:31:37;102159.47;;;-0.79;100.00
59650;BME280;46162;57.568;25.814;2023-02-15T08:34:08;102155.88;;;-0.78;100.00
59650;BME280;46162;57.568;25.814;2023-02-15T08:36:40;102159.28;;;-0.73;100.00
59650;BME280;46162;57.568;25.814;2023-02-15T08:39:08;102158.28;;;-0.69;100.00
59650;BME280;46162;57.568;25.814;2023-02-15T08:41:38;102149.41;;;-0.68;100.00
59650;BME280;46162;57.568;25.814;2023-02-15T08:44:08;102147.59;;;-0.67;100.00
59650;BME280;46162;57.568;25.814;2023-02-15T08:46:39;102141.34;;;-0.65;100.00
59650;BME280;46162;57.568;25.814;2023-02-15T08:49:09;102144.97;;;-0.67;100.00
59650;BME280;46162;57.568;25.814;2023-02-15T08:51:40;102146.72;;;-0.66;100.00
59650;BME280;46162;57.568;25.814;2023-02-15T08:54:12;102141.50;;;-0.69;100.00
59650;BME280;46162;57.568;25.814;2023-02-15T08:56:43;102136.22;;;-0.71;100.00
59650;BME280;46162;57.568;25.814;2023-02-15T08:59:14;102140.56;;;-0.68;100.00
59650;BME280;46162;57.568;25.814;2023-02-15T09:01:43;102139.53;;;-0.62;100.00
59650;BME280;46162;57.568;25.814;2023-02-15T09:04:12;102133.25;;;-0.60;100.00
59650;BME280;46162;57.568;25.814;2023-02-15T09:06:45;102142.91;;;-0.57;100.00
59650;BME280;46162;57.568;25.814;2023-02-15T09:09:16;102134.00;;;-0.55;100.00
59650;BME280;46162;57.568;25.814;2023-02-15T09:11:46;102132.13;;;-0.51;100.00
59650;BME280;46162;57.568;25.814;2023-02-15T09:14:18;102136.38;;;-0.46;100.00
59650;BME280;46162;57.568;25.814;2023-02-15T09:16:47;102133.63;;;-0.43;100.00
59650;BME280;46162;57.568;25.814;2023-02-15T09:19:20;102129.06;;;-0.37;100.00
59650;BME280;46162;57.568;25.814;2023-02-15T09:21:51;102139.44;;;-0.30;100.00
59650;BME280;46162;57.568;25.814;2023-02-15T09:24:20;102134.00;;;-0.25;100.00
59650;BME280;46162;57.568;25.814;2023-02-15T09:26:49;102136.50;;;-0.20;100.00
59650;BME280;46162;57.568;25.814;2023-02-15T09:29:18;102126.56;;;-0.14;100.00
59650;BME280;46162;57.568;25.814;2023-02-15T09:31:48;102127.34;;;-0.10;100.00
59650;BME280;46162;57.568;25.814;2023-02-15T09:34:19;102130.72;;;-0.05;100.00
59650;BME280;46162;57.568;25.814;2023-02-15T09:36:50;102131.53;;;-0.03;100.00
59650;BME280;46162;57.568;25.814;2023-02-15T09:39:20;102134.97;;;0.01;100.00
59650;BME280;46162;57.568;25.814;2023-02-15T09:45:01;102130.25;;;0.10;100.00
59650;BME280;46162;57.568;25.814;2023-02-15T09:47:56;102131.00;;;0.14;100.00
59650;BME280;46162;57.568;25.814;2023-02-15T09:50:36;102126.47;;;0.17;100.00
59650;BME280;46162;57.568;25.814;2023-02-15T09:53:26;102129.03;;;0.20;100.00
59650;BME280;46162;57.568;25.814;2023-02-15T09:56:03;102136.88;;;0.24;100.00
59650;BME280;46162;57.568;25.814;2023-02-15T09:58:45;102131.41;;;0.30;100.00
59650;BME280;46162;57.568;25.814;2023-02-15T10:01:19;102131.31;;;0.31;100.00
59650;BME280;46162;57.568;25.814;2023-02-15T10:04:01;102130.41;;;0.32;100.00
59650;BME280;46162;57.568;25.814;2023-02-15T10:06:37;102127.69;;;0.34;100.00
59650;BME280;46162;57.568;25.814;2023-02-15T10:09:23;102132.19;;;0.32;100.00
59650;BME280;46162;57.568;25.814;2023-02-15T10:12:08;102132.16;;;0.33;100.00
59650;BME280;46162;57.568;25.814;2023-02-15T10:15:04;102130.25;;;0.37;100.00
59650;BME280;46162;57.568;25.814;2023-02-15T10:17:49;102125.63;;;0.42;100.00
59650;BME280;46162;57.568;25.814;2023-02-15T10:20:27;102127.13;;;0.51;100.00
59650;BME280;46162;57.568;25.814;2023-02-15T10:23:12;102121.66;;;0.55;100.00
59650;BME280;46162;57.568;25.814;2023-02-15T10:25:53;102126.06;;;0.56;100.00
59650;BME280;46162;57.568;25.814;2023-02-15T10:28:33;102125.34;;;0.51;100.00
59650;BME280;46162;57.568;25.814;2023-02-15T10:31:09;102117.44;;;0.50;100.00
59650;BME280;46162;57.568;25.814;2023-02-15T10:33:42;102114.81;;;0.48;100.00
59650;BME280;46162;57.568;25.814;2023-02-15T10:36:24;102119.19;;;0.49;100.00
59650;BME280;46162;57.568;25.814;2023-02-15T10:39:02;102107.78;;;0.47;100.00
59650;BME280;46162;57.568;25.814;2023-02-15T10:41:43;102110.38;;;0.49;100.00
59650;BME280;46162;57.568;25.814;2023-02-15T10:44:29;102118.19;;;0.53;100.00
59650;BME280;46162;57.568;25.814;2023-02-15T10:47:20;102119.88;;;0.56;100.00
59650;BME280;46162;57.568;25.814;2023-02-15T10:50:07;102115.53;;;0.53;100.00
59650;BME280;46162;57.568;25.814;2023-02-15T10:52:46;102118.91;;;0.58;100.00
59650;BME280;46162;57.568;25.814;2023-02-15T10:55:31;102115.34;;;0.59;100.00
59650;BME280;46162;57.568;25.814;2023-02-15T10:58:11;102122.16;;;0.67;100.00
59650;BME280;46162;57.568;25.814;2023-02-15T11:00:47;102115.81;;;0.71;100.00
59650;BME280;46162;57.568;25.814;2023-02-15T11:03:43;102121.03;;;0.74;100.00
59650;BME280;46162;57.568;25.814;2023-02-15T11:06:18;102122.06;;;0.70;100.00
59650;BME280;46162;57.568;25.814;2023-02-15T11:08:51;102118.69;;;0.64;100.00
59650;BME280;46162;57.568;25.814;2023-02-15T11:11:26;102121.44;;;0.61;100.00
59650;BME280;46162;57.568;25.814;2023-02-15T11:14:01;102122.50;;;0.57;100.00
59650;BME280;46162;57.568;25.814;2023-02-15T11:16:34;102119.06;;;0.54;100.00
59650;BME280;46162;57.568;25.814;2023-02-15T11:19:08;102123.63;;;0.50;100.00
59650;BME280;46162;57.568;25.814;2023-02-15T11:21:42;102123.63;;;0.50;100.00
59650;BME280;46162;57.568;25.814;2023-02-15T11:24:14;102120.44;;;0.39;100.00
59650;BME280;46162;57.568;25.814;2023-02-15T11:26:48;102118.91;;;0.32;100.00
59650;BME280;46162;57.568;25.814;2023-02-15T11:29:25;102118.03;;;0.31;100.00
59650;BME280;46162;57.568;25.814;2023-02-15T11:31:59;102112.94;;;0.25;100.00
59650;BME280;46162;57.568;25.814;2023-02-15T11:34:33;102115.84;;;0.17;100.00
59650;BME280;46162;57.568;25.814;2023-02-15T11:37:07;102123.88;;;0.16;100.00
59650;BME280;46162;57.568;25.814;2023-02-15T11:39:38;102124.84;;;0.13;100.00
59650;BME280;46162;57.568;25.814;2023-02-15T11:42:13;102126.88;;;0.05;100.00
59650;BME280;46162;57.568;25.814;2023-02-15T11:44:59;102127.00;;;0.01;100.00
59650;BME280;46162;57.568;25.814;2023-02-15T11:47:30;102130.69;;;-0.04;100.00
59650;BME280;46162;57.568;25.814;2023-02-15T11:49:59;102128.06;;;-0.05;100.00
59650;BME280;46162;57.568;25.814;2023-02-15T11:52:28;102130.91;;;-0.11;100.00
59650;BME280;46162;57.568;25.814;2023-02-15T11:54:57;102121.22;;;-0.12;100.00
59650;BME280;46162;57.568;25.814;2023-02-15T11:57:30;102121.22;;;-0.12;100.00
59650;BME280;46162;57.568;25.814;2023-02-15T12:00:10;102110.63;;;-0.12;100.00
59650;BME280;46162;57.568;25.814;2023-02-15T12:02:46;102111.63;;;-0.16;100.00
59650;BME280;46162;57.568;25.814;2023-02-15T12:05:20;102116.81;;;-0.13;100.00
59650;BME280;46162;57.568;25.814;2023-02-15T12:07:52;102111.50;;;-0.13;100.00
59650;BME280;46162;57.568;25.814;2023-02-15T12:10:25;102122.13;;;-0.13;100.00
59650;BME280;46162;57.568;25.814;2023-02-15T12:13:10;102117.78;;;-0.16;100.00
59650;BME280;46162;57.568;25.814;2023-02-15T12:15:45;102109.19;;;-0.24;100.00
59650;BME280;46162;57.568;25.814;2023-02-15T12:18:20;102115.25;;;-0.19;100.00
59650;BME280;46162;57.568;25.814;2023-02-15T12:20:49;102115.16;;;-0.17;100.00
59650;BME280;46162;57.568;25.814;2023-02-15T12:23:19;102118.75;;;-0.18;100.00
59650;BME280;46162;57.568;25.814;2023-02-15T12:25:51;102109.09;;;-0.21;100.00
59650;BME280;46162;57.568;25.814;2023-02-15T12:28:26;102110.94;;;-0.23;100.00
59650;BME280;46162;57.568;25.814;2023-02-15T12:31:00;102110.94;;;-0.23;100.00
59650;BME280;46162;57.568;25.814;2023-02-15T12:33:32;102102.09;;;-0.24;100.00
59650;BME280;46162;57.568;25.814;2023-02-15T12:36:14;102111.13;;;-0.29;100.00
59650;BME280;46162;57.568;25.814;2023-02-15T12:39:09;102112.28;;;-0.38;100.00
59650;BME280;46162;57.568;25.814;2023-02-15T12:41:57;102117.66;;;-0.39;100.00
59650;BME280;46162;57.568;25.814;2023-02-15T12:44:29;102113.44;;;-0.47;100.00
59650;BME280;46162;57.568;25.814;2023-02-15T12:47:02;102114.44;;;-0.51;100.00
59650;BME280;46162;57.568;25.814;2023-02-15T12:49:34;102113.69;;;-0.56;100.00
59650;BME280;46162;57.568;25.814;2023-02-15T12:52:06;102117.22;;;-0.55;100.00
59650;BME280;46162;57.568;25.814;2023-02-15T12:54:37;102112.91;;;-0.59;100.00
59650;BME280;46162;57.568;25.814;2023-02-15T12:57:21;102113.78;;;-0.59;100.00
59650;BME280;46162;57.568;25.814;2023-02-15T12:59:51;102112.88;;;-0.58;100.00
59650;BME280;46162;57.568;25.814;2023-02-15T13:02:43;102113.88;;;-0.62;100.00
59650;BME280;46162;57.568;25.814;2023-02-15T13:05:21;102120.97;;;-0.62;100.00
59650;BME280;46162;57.568;25.814;2023-02-15T13:07:55;102123.56;;;-0.61;100.00
59650;BME280;46162;57.568;25.814;2023-02-15T13:10:27;102111.19;;;-0.60;100.00
59650;BME280;46162;57.568;25.814;2023-02-15T13:12:57;102119.13;;;-0.60;100.00